N815DG KFFO-KTZR
Flight info
| Callsign | N815DG |
|---|---|
| Flight time | 0h 16m |
| Altitude | VFR/060 |
| Route | |
| Aircraft | PC12/L-DOV/C |
Departure
| Time | 2026-05-09 01:16 |
|---|---|
| Airport | Wright-Patterson Air Force Base (KFFO) |
Arrival
| Time | 2026-05-09 01:33 |
|---|---|
| Airport | Bolton Field (KTZR) |
| Time | Latitude | Longitude | Altitude | Speed | Heading |
|---|---|---|---|---|---|
| 2026-05-09 01:16 | 39.72871 | -84.15526 | 3590 ft | 182 kts | 219° |
| 2026-05-09 01:16 | 39.71908 | -84.16558 | 3950 ft | 177 kts | 225° |
| 2026-05-09 01:17 | 39.69854 | -84.17715 | 4757 ft | 183 kts | 160° |
| 2026-05-09 01:17 | 39.69001 | -84.16457 | 5157 ft | 194 kts | 121° |
| 2026-05-09 01:17 | 39.68411 | -84.14819 | 5173 ft | 212 kts | 118° |
| 2026-05-09 01:17 | 39.67800 | -84.12953 | 4950 ft | 239 kts | 109° |
| 2026-05-09 01:18 | 39.67766 | -84.10735 | 4916 ft | 249 kts | 85° |
| 2026-05-09 01:18 | 39.67938 | -84.08467 | 4908 ft | 254 kts | 77° |
| 2026-05-09 01:18 | 39.68550 | -84.06344 | 4902 ft | 256 kts | 65° |
| 2026-05-09 01:18 | 39.69185 | -84.04144 | 4888 ft | 259 kts | 71° |
| 2026-05-09 01:19 | 39.69700 | -84.01935 | 4895 ft | 260 kts | 74° |
| 2026-05-09 01:19 | 39.70161 | -83.99625 | 4900 ft | 262 kts | 76° |
| 2026-05-09 01:19 | 39.70631 | -83.97337 | 4901 ft | 265 kts | 75° |
| 2026-05-09 01:19 | 39.71127 | -83.95053 | 4901 ft | 266 kts | 74° |
| 2026-05-09 01:20 | 39.71646 | -83.92718 | 4904 ft | 267 kts | 73° |
| 2026-05-09 01:20 | 39.72186 | -83.90401 | 4903 ft | 268 kts | 74° |
| 2026-05-09 01:20 | 39.72726 | -83.88119 | 4904 ft | 269 kts | 73° |
| 2026-05-09 01:20 | 39.73282 | -83.85770 | 4903 ft | 269 kts | 72° |
| 2026-05-09 01:21 | 39.73827 | -83.83451 | 4899 ft | 270 kts | 73° |
| 2026-05-09 01:21 | 39.74378 | -83.81142 | 4897 ft | 270 kts | 73° |
| 2026-05-09 01:21 | 39.74928 | -83.78818 | 4897 ft | 269 kts | 73° |
| 2026-05-09 01:21 | 39.75477 | -83.76502 | 4898 ft | 269 kts | 73° |
| 2026-05-09 01:22 | 39.76018 | -83.74177 | 4892 ft | 270 kts | 73° |
| 2026-05-09 01:22 | 39.76575 | -83.71830 | 4910 ft | 269 kts | 73° |
| 2026-05-09 01:22 | 39.77185 | -83.69569 | 4894 ft | 268 kts | 71° |
| 2026-05-09 01:22 | 39.77764 | -83.67282 | 5030 ft | 259 kts | 70° |
| 2026-05-09 01:23 | 39.78131 | -83.65133 | 5326 ft | 247 kts | 81° |
| 2026-05-09 01:23 | 39.78341 | -83.62886 | 5371 ft | 247 kts | 81° |
| 2026-05-09 01:23 | 39.78597 | -83.60639 | 5120 ft | 261 kts | 90° |
| 2026-05-09 01:23 | 39.78738 | -83.58287 | 4916 ft | 269 kts | 91° |
| 2026-05-09 01:24 | 39.78714 | -83.55863 | 4587 ft | 277 kts | 98° |
| 2026-05-09 01:24 | 39.78379 | -83.53542 | 4685 ft | 247 kts | 105° |
| 2026-05-09 01:24 | 39.77904 | -83.51388 | 3989 ft | 256 kts | 106° |
| 2026-05-09 01:24 | 39.77528 | -83.49112 | 3621 ft | 248 kts | 106° |
| 2026-05-09 01:25 | 39.77304 | -83.47031 | 3913 ft | 219 kts | 91° |
| 2026-05-09 01:25 | 39.77387 | -83.45139 | 4007 ft | 207 kts | 88° |
| 2026-05-09 01:25 | 39.77542 | -83.43302 | 4008 ft | 204 kts | 83° |
| 2026-05-09 01:25 | 39.77817 | -83.41502 | 4005 ft | 202 kts | 78° |
| 2026-05-09 01:26 | 39.78292 | -83.39797 | 4006 ft | 199 kts | 66° |
| 2026-05-09 01:26 | 39.78898 | -83.38199 | 4015 ft | 195 kts | 52° |
| 2026-05-09 01:26 | 39.79696 | -83.36791 | 4008 ft | 194 kts | 48° |
| 2026-05-09 01:26 | 39.80365 | -83.35287 | 3955 ft | 192 kts | 62° |
| 2026-05-09 01:27 | 39.80900 | -83.33551 | 4019 ft | 220 kts | 59° |
| 2026-05-09 01:27 | 39.82116 | -83.32352 | 4063 ft | 231 kts | 16° |
| 2026-05-09 01:27 | 39.83557 | -83.31394 | 4450 ft | 234 kts | 31° |
| 2026-05-09 01:27 | 39.84958 | -83.30106 | 4228 ft | 262 kts | 32° |
| 2026-05-09 01:28 | 39.86500 | -83.28669 | 3859 ft | 281 kts | 33° |
| 2026-05-09 01:28 | 39.88124 | -83.27306 | 3482 ft | 269 kts | 31° |
| 2026-05-09 01:28 | 39.89678 | -83.26030 | 3116 ft | 255 kts | 20° |
| 2026-05-09 01:28 | 39.91295 | -83.25680 | 3017 ft | 229 kts | 0° |
| 2026-05-09 01:29 | 39.92834 | -83.25405 | 2999 ft | 215 kts | 2° |
| 2026-05-09 01:29 | 39.94273 | -83.25168 | 2992 ft | 200 kts | 0° |
| 2026-05-09 01:29 | 39.95565 | -83.24552 | 2972 ft | 200 kts | 38° |
| 2026-05-09 01:29 | 39.96304 | -83.23061 | 2947 ft | 195 kts | 67° |
| 2026-05-09 01:30 | 39.96440 | -83.21374 | 2968 ft | 183 kts | 103° |
| 2026-05-09 01:30 | 39.96201 | -83.19775 | 2976 ft | 177 kts | 104° |
| 2026-05-09 01:30 | 39.95846 | -83.18248 | 2989 ft | 173 kts | 111° |
| 2026-05-09 01:30 | 39.95483 | -83.16811 | 2997 ft | 172 kts | 111° |
| 2026-05-09 01:31 | 39.95144 | -83.15358 | 2975 ft | 170 kts | 106° |
| 2026-05-09 01:31 | 39.94730 | -83.13929 | 2938 ft | 162 kts | 126° |
| 2026-05-09 01:31 | 39.93939 | -83.12930 | 2675 ft | 167 kts | 140° |
| 2026-05-09 01:31 | 39.93124 | -83.12065 | 2037 ft | 140 kts | 182° |
| 2026-05-09 01:32 | 39.92250 | -83.12255 | 1669 ft | 113 kts | 201° |
| 2026-05-09 01:32 | 39.91613 | -83.12579 | 1381 ft | 101 kts | 208° |
| 2026-05-09 01:32 | 39.90902 | -83.13074 | 1004 ft | 104 kts | 209° |
| 2026-05-09 01:32 | 39.90413 | -83.13446 | 899 ft | 56 kts | 215° |
| 2026-05-09 01:33 | 39.90215 | -83.13614 | 899 ft | 19 kts | 221° |
| 2026-05-09 01:33 | 39.90134 | -83.13715 | 899 ft | 18 kts | 301° |
| 2026-05-09 01:33 | 39.90243 | -83.13693 | 899 ft | 14 kts | 39° |
| 2026-05-09 01:33 | 39.90420 | -83.13563 | 899 ft | 51 kts | 29° |
| 2026-05-09 01:34 | 39.90589 | -83.13522 | 899 ft | 18 kts | 302° |
| 2026-05-09 01:34 | 39.90680 | -83.13669 | 899 ft | 16 kts | 301° |
| 2026-05-09 01:34 | 39.90710 | -83.13729 | 899 ft | 1 kts | 34° |
| 2026-05-09 01:34 | 39.90729 | -83.13715 | 899 ft | 5 kts | 27° |
| 2026-05-09 01:35 | 39.90741 | -83.13706 | 899 ft | 0 kts | 24° |